Time;durP1;ratioP1;P1;durP2;ratioP2;P2;SDS_P1;SDS_P2;PMS_P1;PMS_P2;Temp;Humidity;BMP_temperature;BMP_pressure;BME280_temperature;BME280_humidity;BME280_pressure;Samples;Min_cycle;Max_cycle;Signal;HPM_P1;HPM_P2
2022/03/30 00:00:40;;;;;;;32.95;19.25;;;;;;;22.55;100.00;58178.75;5113399;28;20028;-60
2022/03/30 00:03:05;;;;;;;32.22;18.52;;;;;;;;;;5113281;28;20080;-59
2022/03/30 00:05:31;;;;;;;28.27;17.33;;;;;;;22.55;100.00;58178.75;5112236;28;20080;-60
2022/03/30 00:07:56;;;;;;;33.25;20.48;;;;;;;;;;5113290;28;20487;-58
2022/03/30 00:10:22;;;;;;;33.30;19.10;;;;;;;;;;5113365;28;20028;-60
2022/03/30 00:12:47;;;;;;;35.72;19.25;;;;;;;;;;5106861;28;20115;-60
2022/03/30 00:15:14;;;;;;;31.17;17.15;;;;;;;22.55;100.00;58178.75;5105432;28;20050;-59
2022/03/30 00:17:39;;;;;;;25.83;18.08;;;;;;;22.55;100.00;58178.75;5113357;28;20023;-59
2022/03/30 00:20:04;;;;;;;26.83;18.33;;;;;;;;;;5113104;28;20046;-59
2022/03/30 00:22:30;;;;;;;34.53;18.33;;;;;;;22.55;100.00;58178.75;5113049;28;20101;-60
2022/03/30 00:24:55;;;;;;;29.98;18.90;;;;;;;-142.64;100.00;58178.75;5113020;28;20444;-59
2022/03/30 00:27:20;;;;;;;31.65;19.27;;;;;;;;;;5111573;28;20057;-60
2022/03/30 00:29:46;;;;;;;26.80;18.13;;;;;;;22.55;100.00;58178.75;5111513;28;20036;-59
2022/03/30 00:32:12;;;;;;;28.65;19.55;;;;;;;-142.64;100.00;77855.34;5111798;28;20055;-59
2022/03/30 00:34:39;;;;;;;28.77;19.20;;;;;;;-142.64;100.00;77855.34;5111764;28;20031;-59
2022/03/30 00:37:05;;;;;;;31.95;18.60;;;;;;;22.55;100.00;58178.75;5112794;28;20462;-60
2022/03/30 00:39:30;;;;;;;31.05;18.88;;;;;;;22.55;100.00;58178.75;5112881;28;20035;-58
2022/03/30 00:41:56;;;;;;;32.63;19.00;;;;;;;22.55;100.00;58178.75;5112653;28;20368;-60
2022/03/30 00:44:21;;;;;;;36.03;19.52;;;;;;;22.55;100.00;58178.75;5112280;28;20028;-60
2022/03/30 00:46:46;;;;;;;33.10;18.85;;;;;;;;;;5112425;28;20122;-60
2022/03/30 00:49:12;;;;;;;31.50;18.70;;;;;;;;;;5112907;28;20058;-59
2022/03/30 00:51:37;;;;;;;30.27;18.60;;;;;;;22.55;100.00;58178.75;5112870;28;20827;-60
2022/03/30 00:54:03;;;;;;;35.13;20.38;;;;;;;22.55;100.00;58178.75;5112610;28;20063;-59
2022/03/30 00:56:30;;;;;;;26.90;17.85;;;;;;;22.55;100.00;58178.75;5112753;28;20039;-60
2022/03/30 00:58:56;;;;;;;30.27;18.50;;;;;;;;;;5111137;28;20031;-59
2022/03/30 01:01:23;;;;;;;39.13;19.67;;;;;;;5.25;nan;100794.25;5111710;28;20035;-59
2022/03/30 01:03:48;;;;;;;29.10;19.85;;;;;;;5.23;nan;100788.16;5112515;28;20103;-60
2022/03/30 01:06:13;;;;;;;26.75;17.70;;;;;;;5.20;nan;100778.63;5112486;28;20491;-59
2022/03/30 01:08:39;;;;;;;32.30;19.25;;;;;;;5.11;nan;100765.66;5112203;28;20425;-60
2022/03/30 01:11:04;;;;;;;31.27;19.08;;;;;;;5.01;nan;100753.63;5112236;28;20031;-60
2022/03/30 01:13:30;;;;;;;33.97;18.95;;;;;;;5.07;nan;100771.81;5112233;28;20035;-59
2022/03/30 01:15:55;;;;;;;33.03;19.15;;;;;;;5.00;nan;100764.94;5110945;28;20048;-58
2022/03/30 01:18:21;;;;;;;30.90;18.42;;;;;;;4.96;nan;100769.31;5111187;28;20495;-60
2022/03/30 01:20:50;;;;;;;34.67;19.15;;;;;;;4.83;nan;100748.59;5093865;28;20035;-59
2022/03/30 01:23:16;;;;;;;36.38;19.60;;;;;;;4.84;nan;100760.78;5098905;28;20028;-59
2022/03/30 01:25:41;;;;;;;30.08;18.88;;;;;;;4.77;nan;100756.47;5108539;28;20118;-60
2022/03/30 01:28:07;;;;;;;34.28;18.45;;;;;;;4.72;nan;100759.16;5095261;28;20024;-60
2022/03/30 01:33:16;;;;;;;37.53;20.40;;;;;;;4.63;nan;100750.53;5111072;28;20101;-60
2022/03/30 01:35:41;;;;;;;30.58;18.55;;;;;;;4.59;nan;100741.88;5112277;28;20043;-60
2022/03/30 01:38:07;;;;;;;30.25;19.50;;;;;;;4.30;nan;100697.00;5111379;28;20074;-60
2022/03/30 01:40:33;;;;;;;35.83;18.90;;;;;;;4.58;nan;100753.22;5112070;28;20019;-59
2022/03/30 01:42:58;;;;;;;31.35;18.83;;;;;;;4.34;nan;100714.34;5104315;28;20036;-59
2022/03/30 01:45:24;;;;;;;31.05;18.52;;;;;;;4.05;nan;100685.06;5104655;28;20070;-59
2022/03/30 01:47:52;;;;;;;30.45;17.85;;;;;;;4.04;nan;100681.59;5112140;28;20516;-59
2022/03/30 01:50:18;;;;;;;31.00;17.98;;;;;;;4.04;nan;100683.31;5112074;28;20032;-59
2022/03/30 01:52:43;;;;;;;37.10;18.70;;;;;;;4.04;nan;100691.16;5111613;28;20034;-60
2022/03/30 01:55:09;;;;;;;35.97;18.73;;;;;;;4.35;nan;100737.75;5111765;28;20028;-59
2022/03/30 01:57:34;;;;;;;33.88;18.75;;;;;;;4.34;nan;100740.38;5110650;28;20034;-58
2022/03/30 02:00:03;;;;;;;35.45;18.30;;;;;;;4.24;nan;100720.50;5111744;28;20506;-59
2022/03/30 02:02:29;;;;;;;33.50;20.10;;;;;;;4.31;nan;100730.00;5103705;28;20391;-60
2022/03/30 02:04:54;;;;;;;26.80;17.67;;;;;;;4.37;nan;100729.94;5111947;28;20036;-60
2022/03/30 02:07:20;;;;;;;32.55;18.65;;;;;;;4.39;nan;100728.19;5112085;28;20486;-58
2022/03/30 02:09:46;;;;;;;31.45;18.98;;;;;;;4.44;nan;100716.84;5111538;28;20096;-58
2022/03/30 02:12:11;;;;;;;26.65;16.83;;;;;;;4.23;nan;100671.88;5111695;28;20126;-59
2022/03/30 02:14:37;;;;;;;31.52;17.20;;;;;;;4.54;nan;100728.03;5112028;28;20019;-59
2022/03/30 02:17:03;;;;;;;35.25;18.00;;;;;;;-142.64;67.27;42187.03;5111609;28;20024;-59
2022/03/30 02:19:29;;;;;;;32.40;18.20;;;;;;;22.55;100.00;58178.75;5111776;28;20082;-59
2022/03/30 02:21:54;;;;;;;34.47;18.25;;;;;;;22.55;100.00;58178.75;5113849;28;20032;-59
2022/03/30 02:24:19;;;;;;;32.17;17.67;;;;;;;;;;5094014;28;20032;-60
2022/03/30 02:26:47;;;;;;;37.20;18.90;;;;;;;22.55;100.00;58178.75;5103840;28;20450;-59
2022/03/30 02:29:12;;;;;;;31.98;18.85;;;;;;;-142.64;100.00;67425.97;5115259;28;20484;-58
2022/03/30 02:31:37;;;;;;;36.08;18.52;;;;;;;;;;5115444;28;20069;-59
2022/03/30 02:34:03;;;;;;;29.15;18.60;;;;;;;22.55;100.00;58178.75;5099573;28;20391;-58
2022/03/30 02:36:28;;;;;;;37.92;19.40;;;;;;;;;;5115245;28;20032;-59
2022/03/30 02:38:53;;;;;;;30.45;17.88;;;;;;;;;;5113535;28;20079;-59
2022/03/30 02:41:19;;;;;;;29.90;18.90;;;;;;;22.55;100.00;58178.75;5114934;28;20044;-59
2022/03/30 02:43:44;;;;;;;36.60;20.08;;;;;;;22.55;100.00;58178.75;5096586;28;20040;-59
2022/03/30 02:46:09;;;;;;;33.42;20.45;;;;;;;3.92;nan;100706.00;5114924;28;20626;-61
2022/03/30 02:48:37;;;;;;;36.03;19.48;;;;;;;3.90;nan;100683.44;5115111;28;20463;-59
2022/03/30 02:51:04;;;;;;;37.53;18.98;;;;;;;3.85;nan;100680.03;5113571;28;20028;-59
2022/03/30 02:53:31;;;;;;;36.97;20.45;;;;;;;3.42;nan;100607.44;5114830;28;20032;-60
2022/03/30 02:55:56;;;;;;;41.95;20.13;;;;;;;3.63;nan;100650.69;5114687;28;20479;-60
2022/03/30 02:58:22;;;;;;;38.28;19.67;;;;;;;3.74;nan;100674.00;5114858;28;20046;-60
2022/03/30 03:00:48;;;;;;;41.92;20.48;;;;;;;3.35;nan;100613.59;5114732;28;20464;-59
2022/03/30 03:03:13;;;;;;;37.40;20.13;;;;;;;3.59;nan;100685.38;5114420;28;20023;-60
2022/03/30 03:05:41;;;;;;;38.25;20.27;;;;;;;3.12;nan;100594.66;5113281;28;20122;-60
2022/03/30 03:08:07;;;;;;;36.03;19.05;;;;;;;3.53;nan;100682.84;5113156;28;20036;-60
2022/03/30 03:10:35;;;;;;;35.83;19.30;;;;;;;3.51;nan;100681.97;5114868;28;20031;-60
2022/03/30 03:13:03;;;;;;;33.55;19.60;;;;;;;3.08;nan;100607.69;5114479;28;20023;-60
2022/03/30 03:15:30;;;;;;;41.65;20.23;;;;;;;3.01;nan;100590.38;5104252;27;20093;-60
2022/03/30 03:17:56;;;;;;;35.13;19.73;;;;;;;3.44;nan;100663.81;5096385;28;20085;-60
2022/03/30 03:20:21;;;;;;;34.95;20.85;;;;;;;3.28;nan;100645.69;5113195;28;20147;-60
2022/03/30 03:22:46;;;;;;;33.03;19.85;;;;;;;3.28;nan;100657.84;5096270;28;20088;-59
2022/03/30 03:25:12;;;;;;;46.05;21.60;;;;;;;3.32;nan;100676.03;5113294;28;20395;-59
2022/03/30 03:27:38;;;;;;;39.30;19.75;;;;;;;2.51;nan;100538.69;5114475;28;20046;-59
2022/03/30 03:30:05;;;;;;;38.90;18.65;;;;;;;3.17;nan;100659.66;5114222;28;20126;-60
2022/03/30 03:32:30;;;;;;;41.22;20.85;;;;;;;3.00;nan;100638.94;5114074;28;20122;-60
2022/03/30 03:34:56;;;;;;;36.88;20.80;;;;;;;3.22;nan;100676.09;5114120;28;20110;-60
2022/03/30 03:37:21;;;;;;;38.80;20.75;;;;;;;3.20;nan;100681.31;5112789;28;20081;-59
2022/03/30 03:39:47;;;;;;;41.28;21.02;;;;;;;2.78;nan;100612.16;5114004;28;20028;-59
2022/03/30 03:42:13;;;;;;;39.17;21.10;;;;;;;3.13;nan;100655.31;5113880;28;20073;-59
2022/03/30 03:44:39;;;;;;;38.92;19.88;;;;;;;3.29;nan;100670.84;5112686;28;20059;-59
2022/03/30 03:47:07;;;;;;;42.92;20.58;;;;;;;3.32;nan;100667.38;5105671;28;20073;-60
2022/03/30 03:49:32;;;;;;;46.33;21.73;;;;;;;3.35;nan;100672.56;5113048;28;20028;-59
2022/03/30 03:51:58;;;;;;;35.92;20.65;;;;;;;3.38;nan;100669.94;5113186;28;20042;-59
2022/03/30 03:54:23;;;;;;;37.80;20.02;;;;;;;3.22;nan;100637.06;5113401;28;20537;-60
2022/03/30 03:56:48;;;;;;;34.80;19.98;;;;;;;3.37;nan;100661.25;5113692;28;20036;-60
2022/03/30 03:59:14;;;;;;;36.10;21.23;;;;;;;3.40;nan;100653.44;5113577;28;20046;-60
2022/03/30 04:01:39;;;;;;;39.00;20.40;;;;;;;3.45;nan;100648.19;5112092;28;20028;-61
2022/03/30 04:04:06;;;;;;;34.88;18.05;;;;;;;3.53;nan;100654.22;5113150;28;20085;-59
2022/03/30 04:06:32;;;;;;;36.45;19.17;;;;;;;3.52;nan;100642.09;5113335;28;20027;-59
2022/03/30 04:08:57;;;;;;;43.17;19.63;;;;;;;3.00;nan;100553.13;5113484;28;20114;-60
2022/03/30 04:11:23;;;;;;;37.50;21.00;;;;;;;2.50;nan;100474.59;5111940;28;20118;-60
2022/03/30 04:13:49;;;;;;;35.67;19.75;;;;;;;3.42;nan;100635.19;5113460;28;20081;-60
2022/03/30 04:16:16;;;;;;;38.17;18.80;;;;;;;3.31;nan;100621.41;5096469;28;20107;-60
2022/03/30 04:18:42;;;;;;;35.20;18.75;;;;;;;3.19;nan;100611.94;5113114;28;20030;-60
2022/03/30 04:21:07;;;;;;;39.85;19.98;;;;;;;3.23;nan;100621.47;5111781;28;20058;-60
2022/03/30 04:23:33;;;;;;;37.75;19.35;;;;;;;2.80;nan;100558.44;5091585;28;20032;-61
2022/03/30 04:25:58;;;;;;;36.92;18.58;;;;;;;2.73;nan;100563.69;5109466;28;20050;-59
2022/03/30 04:28:23;;;;;;;37.45;19.13;;;;;;;2.81;nan;100587.88;5113106;28;20058;-60
2022/03/30 04:30:49;;;;;;;31.02;18.85;;;;;;;3.01;nan;100630.25;5112994;28;20047;-60
2022/03/30 04:33:14;;;;;;;38.30;18.67;;;;;;;3.00;nan;100643.25;5094577;28;20126;-60
2022/03/30 04:35:39;;;;;;;40.92;20.27;;;;;;;2.92;nan;100635.47;5111390;28;20031;-59
2022/03/30 04:38:06;;;;;;;34.90;19.85;;;;;;;2.46;nan;100580.25;5111965;28;20208;-60
2022/03/30 04:40:32;;;;;;;38.10;19.55;;;;;;;2.91;nan;100632.91;5112585;28;20040;-60
2022/03/30 04:42:57;;;;;;;37.60;20.23;;;;;;;2.87;nan;100634.66;5112581;28;20027;-60
2022/03/30 04:45:23;;;;;;;35.70;19.17;;;;;;;2.78;nan;100627.75;5110696;28;20526;-59
2022/03/30 04:47:49;;;;;;;37.10;20.98;;;;;;;2.70;nan;100623.47;5111348;28;20067;-60
2022/03/30 04:50:16;;;;;;;40.22;21.55;;;;;;;2.76;nan;100649.44;5111243;28;20038;-61
2022/03/30 04:52:42;;;;;;;34.42;20.40;;;;;;;2.73;nan;100633.84;5112966;28;20059;-59
2022/03/30 04:55:08;;;;;;;42.28;22.90;;;;;;;2.67;nan;100634.75;5112445;28;20063;-59
2022/03/30 04:57:34;;;;;;;48.40;22.63;;;;;;;2.38;nan;100579.41;5112671;28;20051;-60
2022/03/30 04:59:59;;;;;;;41.28;22.00;;;;;;;2.31;nan;100561.28;5094312;28;20112;-60
2022/03/30 05:02:26;;;;;;;44.08;22.02;;;;;;;2.70;nan;100618.25;5111257;28;20059;-59
2022/03/30 05:04:52;;;;;;;49.10;22.27;;;;;;;2.72;nan;100632.09;5112271;28;20053;-60
2022/03/30 05:07:17;;;;;;;47.58;23.65;;;;;;;2.63;nan;100614.81;5112519;28;20043;-59
2022/03/30 05:09:43;;;;;;;47.58;23.50;;;;;;;2.68;nan;100612.22;5112560;28;20024;-59
2022/03/30 05:12:09;;;;;;;48.85;24.27;;;;;;;2.30;nan;100556.94;5112308;28;20472;-59
2022/03/30 05:14:34;;;;;;;44.78;22.48;;;;;;;2.65;nan;100620.91;5111038;28;20028;-59
2022/03/30 05:17:00;;;;;;;44.10;22.85;;;;;;;2.62;nan;100613.09;5089851;28;20460;-63
2022/03/30 05:19:26;;;;;;;44.15;23.27;;;;;;;2.63;nan;100614.81;5104046;28;20035;-59
2022/03/30 05:21:52;;;;;;;46.55;23.33;;;;;;;2.65;nan;100609.63;5110315;28;20063;-61
2022/03/30 05:24:18;;;;;;;47.33;24.58;;;;;;;2.66;nan;100613.94;5094341;28;20381;-60
2022/03/30 05:26:43;;;;;;;46.63;23.63;;;;;;;2.67;nan;100606.16;5093774;28;20311;-61
2022/03/30 05:29:09;;;;;;;45.95;24.65;;;;;;;2.67;nan;100611.34;5112174;28;20040;-63
2022/03/30 05:31:34;;;;;;;47.15;23.20;;;;;;;2.68;nan;100607.88;5111517;28;20495;-61
2022/03/30 05:34:00;;;;;;;52.35;25.08;;;;;;;2.67;nan;100598.34;5111057;28;20039;-60
2022/03/30 05:36:25;;;;;;;54.95;23.50;;;;;;;2.71;nan;100607.00;5100903;28;20031;-57
2022/03/30 05:38:51;;;;;;;43.58;23.42;;;;;;;2.75;nan;100606.97;5112083;28;20170;-60
2022/03/30 05:41:17;;;;;;;45.90;25.17;;;;;;;2.74;nan;100615.63;5111962;28;20040;-59
2022/03/30 05:43:43;;;;;;;43.58;23.70;;;;;;;2.45;nan;100549.94;5112004;28;20043;-58
2022/03/30 05:46:09;;;;;;;44.53;23.75;;;;;;;2.83;nan;100596.56;5093180;28;20043;-59
2022/03/30 05:48:34;;;;;;;46.22;25.17;;;;;;;2.83;nan;100588.75;5110562;28;20555;-58
2022/03/30 05:51:00;;;;;;;45.47;24.90;;;;;;;2.83;nan;100593.97;5093966;28;20398;-59
2022/03/30 05:53:25;;;;;;;45.40;25.58;;;;;;;2.89;nan;100598.25;5111993;28;20122;-59
2022/03/30 05:55:51;;;;;;;50.30;25.25;;;;;;;2.89;nan;100586.09;5112495;28;20024;-59
2022/03/30 05:58:16;;;;;;;44.78;24.98;;;;;;;2.91;nan;100596.50;5114696;28;20093;-59
2022/03/30 06:00:43;;;;;;;54.00;25.27;;;;;;;2.63;nan;100536.84;5114912;28;20463;-59
2022/03/30 06:03:10;;;;;;;48.17;25.15;;;;;;;3.02;nan;100600.78;5114570;28;20081;-60
2022/03/30 06:05:35;;;;;;;53.03;26.25;;;;;;;3.14;nan;100600.72;5115724;28;20062;-59
2022/03/30 06:08:01;;;;;;;46.47;24.42;;;;;;;2.81;nan;100539.38;5114544;28;20055;-59
2022/03/30 06:10:27;;;;;;;51.75;26.98;;;;;;;3.13;nan;100592.91;5115465;28;20031;-59
2022/03/30 06:12:54;;;;;;;40.63;25.23;;;;;;;3.31;nan;100596.25;5115319;28;20482;-59
2022/03/30 06:15:19;;;;;;;49.78;25.58;;;;;;;3.44;nan;100609.19;5115233;28;20494;-59
2022/03/30 06:17:46;;;;;;;44.58;24.85;;;;;;;3.56;nan;100607.34;5109960;28;20040;-60
2022/03/30 06:20:13;;;;;;;43.33;24.27;;;;;;;3.24;nan;100545.13;5114409;28;20027;-59
2022/03/30 06:22:41;;;;;;;45.13;25.10;;;;;;;3.70;nan;100602.91;5114288;28;20436;-58
2022/03/30 06:25:10;;;;;;;45.15;23.30;;;;;;;3.77;nan;100601.97;5114281;28;20031;-59
2022/03/30 06:27:36;;;;;;;41.83;23.75;;;;;;;3.56;nan;100544.88;5115038;28;20050;-60
2022/03/30 06:30:07;;;;;;;36.72;23.15;;;;;;;4.07;nan;100610.38;5113881;28;20036;-59
2022/03/30 06:32:33;;;;;;;39.53;22.52;;;;;;;4.07;nan;100590.41;5111500;28;20119;-58
2022/03/30 06:34:58;;;;;;;40.92;23.27;;;;;;;4.14;nan;100562.56;5114465;28;20161;-59
2022/03/30 06:37:24;;;;;;;37.67;21.95;;;;;;;4.59;nan;100610.69;5114044;28;20039;-59
2022/03/30 06:39:49;;;;;;;42.40;21.75;;;;;;;4.71;nan;100600.09;5112760;28;20146;-59
2022/03/30 06:42:16;;;;;;;37.17;21.10;;;;;;;5.00;nan;100609.28;5114303;28;20031;-60
2022/03/30 06:44:43;;;;;;;38.47;21.00;;;;;;;5.14;nan;100609.09;5112676;28;20031;-60
2022/03/30 06:47:09;;;;;;;32.45;21.13;;;;;;;5.10;nan;100589.16;5113758;28;20031;-57
2022/03/30 06:49:36;;;;;;;36.97;20.65;;;;;;;5.09;nan;100557.00;5113839;28;20114;-59
2022/03/30 06:52:03;;;;;;;32.45;19.27;;;;;;;5.57;nan;100609.34;5112700;28;20084;-59
2022/03/30 06:54:29;;;;;;;34.78;19.35;;;;;;;5.81;nan;100623.75;5113628;28;20357;-59
2022/03/30 06:56:59;;;;;;;32.45;19.95;;;;;;;5.94;nan;100609.63;5113376;28;20085;-59
2022/03/30 06:59:24;;;;;;;30.55;18.75;;;;;;;6.16;nan;100624.03;5113722;28;20051;-59
2022/03/30 07:01:51;;;;;;;30.88;18.58;;;;;;;6.32;nan;100615.03;5113333;28;20040;-58
2022/03/30 07:04:16;;;;;;;36.00;20.67;;;;;;;6.32;nan;100562.75;5112149;28;20047;-59
2022/03/30 07:10:14;;;;;;;36.20;19.73;;;;;;;6.99;nan;100625.00;5112566;28;20031;-59
2022/03/30 07:12:11;;;;;;;28.83;17.60;;;;;;;7.62;nan;100638.41;5112099;28;20124;-59
2022/03/30 07:14:36;;;;;;;28.42;17.65;;;;;;;7.97;nan;100619.22;5113141;28;20475;-58
2022/03/30 07:17:03;;;;;;;30.95;19.30;;;;;;;8.19;nan;100624.78;5112828;28;20445;-59
2022/03/30 07:19:29;;;;;;;31.98;17.63;;;;;;;8.42;nan;100633.78;5111494;28;20122;-58
2022/03/30 07:22:01;;;;;;;28.88;16.75;;;;;;;8.61;nan;100642.00;5113161;28;20047;-60
2022/03/30 07:24:27;;;;;;;25.92;16.08;;;;;;;8.16;nan;100552.31;5112861;28;20042;-59
2022/03/30 07:26:52;;;;;;;26.77;18.02;;;;;;;8.72;nan;100644.34;5113336;28;20142;-58
2022/03/30 07:29:17;;;;;;;27.15;17.00;;;;;;;8.84;nan;100636.97;5112936;28;20187;-59
2022/03/30 07:31:43;;;;;;;26.23;17.02;;;;;;;8.80;nan;100642.38;5112930;28;20532;-58
2022/03/30 07:34:09;;;;;;;27.75;18.10;;;;;;;8.85;nan;100645.72;5111519;28;20039;-58
2022/03/30 07:36:38;;;;;;;26.52;17.77;;;;;;;9.09;nan;100639.78;5112812;28;20036;-59
2022/03/30 07:39:03;;;;;;;26.23;18.02;;;;;;;9.28;nan;100592.81;5112762;28;20027;-59
2022/03/30 07:41:29;;;;;;;29.80;18.52;;;;;;;9.91;nan;100637.19;5102912;28;20369;-59
2022/03/30 07:43:54;;;;;;;26.98;16.15;;;;;;;10.13;nan;100646.97;5109381;28;20076;-59
2022/03/30 07:46:19;;;;;;;27.73;18.25;;;;;;;10.22;nan;100642.31;5112288;28;20043;-59
2022/03/30 07:48:45;;;;;;;27.63;18.30;;;;;;;10.20;nan;100645.00;5111025;28;20035;-59
2022/03/30 07:51:10;;;;;;;25.65;17.35;;;;;;;10.46;nan;100636.22;5111872;28;20043;-59
2022/03/30 07:53:35;;;;;;;23.67;17.48;;;;;;;10.46;nan;100625.69;5112008;28;20042;-59
2022/03/30 07:56:01;;;;;;;21.88;16.15;;;;;;;10.47;nan;100637.94;5111113;28;20034;-59
2022/03/30 07:58:30;;;;;;;27.25;17.65;;;;;;;10.72;nan;100605.44;5112196;28;20039;-59
2022/03/30 08:00:56;;;;;;;23.63;16.02;;;;;;;10.87;nan;100634.72;5111264;28;20054;-59
2022/03/30 08:03:23;;;;;;;23.75;16.15;;;;;;;10.77;nan;100580.72;5110823;28;20061;-58
2022/03/30 08:05:48;;;;;;;24.80;16.00;;;;;;;11.36;nan;100621.44;5110595;28;20027;-59
2022/03/30 08:08:16;;;;;;;22.05;15.38;;;;;;;11.87;nan;100625.56;5111860;28;20372;-59
2022/03/30 08:10:42;;;;;;;18.35;13.77;;;;;;;11.58;nan;100572.22;5111875;28;20019;-60
2022/03/30 08:13:07;;;;;;;22.52;15.27;;;;;;;11.34;nan;100638.22;5111596;28;20407;-59
2022/03/30 08:15:35;;;;;;;23.35;14.80;;;;;;;10.34;nan;100563.84;5093287;28;20559;-59
2022/03/30 08:18:00;;;;;;;28.08;14.10;;;;;;;10.21;nan;100628.34;5091514;28;20079;-58
2022/03/30 08:23:11;;;;;;;19.98;13.82;;;;;;;9.74;nan;100631.63;5111516;28;20051;-58
2022/03/30 08:25:38;;;;;;;14.27;11.10;;;;;;;9.76;nan;100622.78;5111670;28;20036;-59
2022/03/30 08:28:04;;;;;;;12.13;7.70;;;;;;;9.17;nan;100566.88;5093316;28;20043;-58
2022/03/30 08:30:30;;;;;;;8.63;7.18;;;;;;;9.38;nan;100615.25;5111328;28;20032;-58
2022/03/30 08:32:55;;;;;;;12.13;7.28;;;;;;;9.21;nan;100621.03;5111391;28;20045;-58
2022/03/30 08:35:22;;;;;;;6.78;5.50;;;;;;;8.91;nan;100566.81;5110055;28;20454;-58
2022/03/30 08:37:49;;;;;;;10.13;6.90;;;;;;;9.24;nan;100614.81;5109830;28;20394;-58
2022/03/30 08:40:14;;;;;;;9.00;6.07;;;;;;;9.34;nan;100614.47;5094642;28;20059;-58
2022/03/30 08:42:41;;;;;;;8.75;5.60;;;;;;;9.13;nan;100604.66;5110913;28;20063;-58
2022/03/30 08:45:09;;;;;;;7.22;5.75;;;;;;;9.45;nan;100606.28;5109707;28;20480;-58
2022/03/30 08:47:36;;;;;;;9.95;5.30;;;;;;;9.46;nan;100558.94;5110963;28;20046;-57
2022/03/30 08:50:03;;;;;;;6.75;5.28;;;;;;;10.02;nan;100611.41;5110842;28;20058;-58
2022/03/30 08:52:30;;;;;;;7.10;5.05;;;;;;;9.81;nan;100557.78;5111033;28;20198;-58
2022/03/30 08:54:57;;;;;;;10.13;5.00;;;;;;;9.79;nan;100541.19;5111523;28;20032;-59
2022/03/30 08:57:23;;;;;;;6.85;5.05;;;;;;;10.44;nan;100612.59;5109721;28;20453;-59
2022/03/30 09:00:03;;;;;;;5.28;4.40;;;;;;;10.40;nan;100615.38;5109862;28;20023;-59
2022/03/30 09:02:49;;;;;;;6.75;4.50;;;;;;;10.37;nan;100574.25;5096021;28;20038;-58
2022/03/30 09:05:21;;;;;;;5.72;4.07;;;;;;;10.69;nan;100608.16;5109617;28;20031;-58
2022/03/30 09:07:49;;;;;;;5.57;4.35;;;;;;;10.60;nan;100616.41;5107650;28;20043;-59
2022/03/30 09:10:18;;;;;;;4.85;4.40;;;;;;;10.83;nan;100622.63;5094221;28;20065;-58
2022/03/30 09:12:45;;;;;;;4.65;4.10;;;;;;;10.73;nan;100615.06;5110684;28;20039;-58
2022/03/30 09:15:12;;;;;;;5.50;4.43;;;;;;;10.41;nan;100607.44;5110674;28;20563;-58
2022/03/30 09:17:39;;;;;;;6.82;4.88;;;;;;;10.26;nan;100607.13;5110946;28;20097;-58
2022/03/30 09:20:16;;;;;;;5.72;4.15;;;;;;;9.70;nan;100538.88;5110783;28;20566;-59
2022/03/30 09:22:49;;;;;;;5.63;4.38;;;;;;;10.19;nan;100616.97;5110740;28;20027;-60
2022/03/30 09:25:18;;;;;;;6.15;4.60;;;;;;;10.55;nan;100612.22;5110663;28;20077;-59
2022/03/30 09:27:45;;;;;;;5.28;4.68;;;;;;;10.77;nan;100612.31;5108960;28;20048;-59
2022/03/30 09:30:15;;;;;;;6.25;4.88;;;;;;;11.06;nan;100609.44;5111885;28;20096;-59
2022/03/30 09:32:43;;;;;;;5.63;4.80;;;;;;;11.62;nan;100597.53;5114938;28;20035;-59
2022/03/30 09:35:17;;;;;;;10.10;5.15;;;;;;;11.80;nan;100603.88;5113716;28;20031;-59
2022/03/30 09:37:42;;;;;;;8.13;4.72;;;;;;;11.82;nan;100616.06;5114752;28;20055;-59
2022/03/30 09:40:12;;;;;;;5.15;4.55;;;;;;;11.78;nan;100611.84;5114735;28;20059;-58
2022/03/30 09:42:37;;;;;;;6.65;5.10;;;;;;;12.11;nan;100598.19;5103559;28;20085;-60
2022/03/30 09:45:03;;;;;;;10.60;4.72;;;;;;;12.04;nan;100558.00;5114486;28;20399;-60
2022/03/30 09:47:39;;;;;;;5.20;4.70;;;;;;;11.98;nan;100591.69;5114672;28;20062;-59
2022/03/30 09:50:07;;;;;;;5.55;4.95;;;;;;;12.03;nan;100602.91;5113151;28;20076;-59
2022/03/30 09:52:33;;;;;;;6.97;4.45;;;;;;;12.60;nan;100607.47;5112799;28;20126;-59
2022/03/30 09:55:04;;;;;;;7.30;5.07;;;;;;;13.71;nan;100539.69;5114906;28;20031;-59
2022/03/30 09:57:40;;;;;;;6.18;5.00;;;;;;;14.27;nan;100430.88;5114589;28;20040;-59
2022/03/30 10:00:15;;;;;;;10.77;5.50;;;;;;;16.07;nan;100611.59;5112464;28;20039;-59
2022/03/30 10:02:43;;;;;;;6.68;5.63;;;;;;;15.98;nan;100623.59;5114255;28;20031;-59
2022/03/30 10:05:12;;;;;;;8.50;6.55;;;;;;;15.88;nan;100613.63;5095923;28;20028;-60
2022/03/30 10:07:38;;;;;;;7.05;6.10;;;;;;;15.55;nan;100605.78;5113040;28;20024;-58
2022/03/30 10:10:06;;;;;;;8.43;6.85;;;;;;;15.54;nan;100601.41;5113870;28;20483;-58
2022/03/30 10:12:31;;;;;;;10.38;7.38;;;;;;;15.94;nan;100614.09;5099629;28;20038;-58
2022/03/30 10:14:57;;;;;;;13.75;7.95;;;;;;;15.55;nan;100550.94;5113737;28;20396;-58
2022/03/30 10:17:24;;;;;;;10.43;7.97;;;;;;;15.04;nan;100559.09;5114055;28;20044;-58
2022/03/30 10:19:52;;;;;;;11.52;8.50;;;;;;;14.57;nan;100612.84;5113823;28;20047;-58
2022/03/30 10:22:50;;;;;;;12.65;7.97;;;;;;;14.55;nan;100608.59;5092397;28;20663;-58
2022/03/30 10:25:31;;;;;;;10.75;7.55;;;;;;;14.60;nan;100529.72;5104547;28;20031;-58
2022/03/30 10:28:18;;;;;;;8.48;7.10;;;;;;;15.29;nan;100606.34;5112443;28;20047;-58
2022/03/30 10:30:44;;;;;;;9.27;7.30;;;;;;;15.13;nan;100604.53;5113931;28;20027;-58
2022/03/30 10:33:11;;;;;;;10.32;7.47;;;;;;;13.92;nan;100555.31;5112451;28;20040;-58
2022/03/30 10:35:41;;;;;;;11.23;6.93;;;;;;;13.42;nan;100546.41;5112350;28;20476;-59
2022/03/30 10:38:07;;;;;;;8.77;6.88;;;;;;;13.41;nan;100582.56;5113581;27;20032;-58
2022/03/30 10:40:32;;;;;;;8.05;6.07;;;;;;;13.63;nan;100544.50;5094982;28;20034;-58
2022/03/30 10:43:00;;;;;;;7.50;6.15;;;;;;;14.33;nan;100541.78;5102090;28;20110;-59
2022/03/30 10:45:28;;;;;;;9.20;6.45;;;;;;;14.46;nan;100541.06;5113304;28;20088;-59
2022/03/30 10:48:07;;;;;;;6.55;5.80;;;;;;;14.71;nan;100606.00;5113537;28;20433;-59
2022/03/30 10:50:34;;;;;;;6.90;5.78;;;;;;;14.37;nan;100586.56;5113396;28;20024;-59
2022/03/30 10:52:59;;;;;;;7.47;5.45;;;;;;;14.34;nan;100532.91;5113191;28;20070;-59
2022/03/30 10:55:25;;;;;;;6.65;5.35;;;;;;;15.54;nan;100588.13;5095300;28;20059;-59
2022/03/30 10:57:58;;;;;;;7.35;6.03;;;;;;;16.59;nan;100585.44;5111932;28;20394;-59
2022/03/30 11:00:27;;;;;;;6.70;5.72;;;;;;;16.88;nan;100582.72;5113211;28;20035;-59
2022/03/30 11:02:52;;;;;;;7.72;5.78;;;;;;;16.86;nan;100574.00;5113750;28;20357;-59
2022/03/30 11:05:27;;;;;;;7.70;5.45;;;;;;;16.13;nan;100563.44;5109290;28;20047;-59
2022/03/30 11:07:53;;;;;;;6.80;6.00;;;;;;;16.71;nan;100563.44;5111960;28;20500;-59
2022/03/30 11:10:19;;;;;;;6.15;5.38;;;;;;;17.21;nan;100562.94;5113278;28;20123;-58
2022/03/30 11:13:05;;;;;;;5.68;5.15;;;;;;;17.19;nan;100564.84;5112977;28;20035;-58
2022/03/30 11:15:32;;;;;;;6.03;5.13;;;;;;;17.81;nan;100553.63;5113043;28;20028;-59
2022/03/30 11:18:18;;;;;;;5.43;4.93;;;;;;;18.30;nan;100550.31;5111797;28;20449;-60
2022/03/30 11:21:11;;;;;;;5.95;5.20;;;;;;;18.80;nan;100555.66;5111881;28;20453;-60
2022/03/30 11:23:37;;;;;;;10.98;5.30;;;;;;;18.53;nan;100545.09;5110903;28;20038;-63
2022/03/30 11:26:03;;;;;;;8.77;5.57;;;;;;;17.58;nan;100546.31;5111426;28;20035;-60
2022/03/30 11:28:36;;;;;;;6.03;5.43;;;;;;;17.42;nan;100543.75;5112624;27;20381;-60
2022/03/30 11:31:04;;;;;;;5.95;5.25;;;;;;;17.90;nan;100545.03;5112841;28;20082;-59
2022/03/30 11:33:32;;;;;;;10.18;5.30;;;;;;;17.63;nan;100496.28;5111229;28;20059;-60
2022/03/30 11:35:57;;;;;;;8.13;5.30;;;;;;;17.39;nan;100529.81;5112652;28;20375;-61
2022/03/30 11:38:37;;;;;;;6.82;5.07;;;;;;;17.56;nan;100534.06;5112641;28;20463;-62
2022/03/30 11:41:08;;;;;;;5.80;4.80;;;;;;;17.69;nan;100519.81;5112448;28;20054;-59
2022/03/30 11:46:32;;;;;;;6.10;4.80;;;;;;;16.62;nan;100535.63;5112602;28;20101;-60
2022/03/30 11:49:05;;;;;;;6.28;5.35;;;;;;;15.85;nan;100503.16;5094382;28;20045;-59